sensor_id;sensor_type;location;lat;lon;timestamp;P1;durP1;ratioP1;P2;durP2;ratioP2
19049;SDS011;9657;45.940;12.840;2023-02-25T00:01:24;49.17;;;25.80;;
19049;SDS011;9657;45.940;12.840;2023-02-25T00:03:53;47.70;;;25.00;;
19049;SDS011;9657;45.940;12.840;2023-02-25T00:06:22;51.03;;;26.20;;
19049;SDS011;9657;45.940;12.840;2023-02-25T00:08:50;58.60;;;28.20;;
19049;SDS011;9657;45.940;12.840;2023-02-25T00:11:20;49.93;;;26.20;;
19049;SDS011;9657;45.940;12.840;2023-02-25T00:13:48;48.07;;;26.17;;
19049;SDS011;9657;45.940;12.840;2023-02-25T00:16:15;54.37;;;26.23;;
19049;SDS011;9657;45.940;12.840;2023-02-25T00:18:43;51.17;;;26.80;;
19049;SDS011;9657;45.940;12.840;2023-02-25T00:21:11;51.63;;;27.07;;
19049;SDS011;9657;45.940;12.840;2023-02-25T00:23:40;55.00;;;25.37;;
19049;SDS011;9657;45.940;12.840;2023-02-25T00:26:09;49.27;;;25.93;;
19049;SDS011;9657;45.940;12.840;2023-02-25T00:28:37;50.23;;;25.50;;
19049;SDS011;9657;45.940;12.840;2023-02-25T00:31:06;51.57;;;26.20;;
19049;SDS011;9657;45.940;12.840;2023-02-25T00:33:34;45.27;;;25.03;;
19049;SDS011;9657;45.940;12.840;2023-02-25T00:36:04;59.33;;;27.30;;
19049;SDS011;9657;45.940;12.840;2023-02-25T00:38:32;46.93;;;25.60;;
19049;SDS011;9657;45.940;12.840;2023-02-25T00:41:03;51.90;;;24.23;;
19049;SDS011;9657;45.940;12.840;2023-02-25T00:43:36;50.97;;;25.47;;
19049;SDS011;9657;45.940;12.840;2023-02-25T00:46:04;49.03;;;25.23;;
19049;SDS011;9657;45.940;12.840;2023-02-25T00:48:31;46.47;;;24.00;;
19049;SDS011;9657;45.940;12.840;2023-02-25T00:51:02;50.93;;;26.33;;
19049;SDS011;9657;45.940;12.840;2023-02-25T00:53:31;49.70;;;26.00;;
19049;SDS011;9657;45.940;12.840;2023-02-25T00:55:58;53.80;;;28.53;;
19049;SDS011;9657;45.940;12.840;2023-02-25T00:58:26;45.67;;;24.50;;
19049;SDS011;9657;45.940;12.840;2023-02-25T01:00:54;45.43;;;24.23;;
19049;SDS011;9657;45.940;12.840;2023-02-25T01:03:22;45.87;;;24.50;;
19049;SDS011;9657;45.940;12.840;2023-02-25T01:05:49;49.27;;;24.90;;
19049;SDS011;9657;45.940;12.840;2023-02-25T01:08:16;47.37;;;24.80;;
19049;SDS011;9657;45.940;12.840;2023-02-25T01:10:43;49.20;;;24.77;;
19049;SDS011;9657;45.940;12.840;2023-02-25T01:13:11;46.17;;;23.47;;
19049;SDS011;9657;45.940;12.840;2023-02-25T01:15:39;49.17;;;25.33;;
19049;SDS011;9657;45.940;12.840;2023-02-25T01:18:08;45.77;;;24.47;;
19049;SDS011;9657;45.940;12.840;2023-02-25T01:20:36;46.13;;;25.37;;
19049;SDS011;9657;45.940;12.840;2023-02-25T01:23:03;46.93;;;25.03;;
19049;SDS011;9657;45.940;12.840;2023-02-25T01:25:31;46.93;;;24.67;;
19049;SDS011;9657;45.940;12.840;2023-02-25T01:27:58;48.23;;;25.00;;
19049;SDS011;9657;45.940;12.840;2023-02-25T01:30:25;53.33;;;24.90;;
19049;SDS011;9657;45.940;12.840;2023-02-25T01:32:52;48.37;;;22.67;;
19049;SDS011;9657;45.940;12.840;2023-02-25T01:35:20;45.53;;;25.30;;
19049;SDS011;9657;45.940;12.840;2023-02-25T01:37:47;44.80;;;24.33;;
19049;SDS011;9657;45.940;12.840;2023-02-25T01:40:14;47.83;;;25.07;;
19049;SDS011;9657;45.940;12.840;2023-02-25T01:42:42;44.67;;;24.63;;
19049;SDS011;9657;45.940;12.840;2023-02-25T01:45:26;51.73;;;25.53;;
19049;SDS011;9657;45.940;12.840;2023-02-25T01:47:57;46.63;;;24.70;;
19049;SDS011;9657;45.940;12.840;2023-02-25T01:50:33;47.27;;;25.07;;
19049;SDS011;9657;45.940;12.840;2023-02-25T01:53:11;45.93;;;24.13;;
19049;SDS011;9657;45.940;12.840;2023-02-25T01:55:39;46.00;;;23.73;;
19049;SDS011;9657;45.940;12.840;2023-02-25T01:58:07;43.97;;;23.83;;
19049;SDS011;9657;45.940;12.840;2023-02-25T02:03:10;47.73;;;23.70;;
19049;SDS011;9657;45.940;12.840;2023-02-25T02:08:34;50.30;;;24.57;;
19049;SDS011;9657;45.940;12.840;2023-02-25T02:11:02;46.60;;;24.53;;
19049;SDS011;9657;45.940;12.840;2023-02-25T02:13:30;47.03;;;24.23;;
19049;SDS011;9657;45.940;12.840;2023-02-25T02:16:04;49.37;;;25.43;;
19049;SDS011;9657;45.940;12.840;2023-02-25T02:18:48;48.07;;;24.23;;
19049;SDS011;9657;45.940;12.840;2023-02-25T02:21:27;45.00;;;25.53;;
19049;SDS011;9657;45.940;12.840;2023-02-25T02:24:24;44.13;;;23.43;;
19049;SDS011;9657;45.940;12.840;2023-02-25T02:27:18;43.27;;;22.43;;
19049;SDS011;9657;45.940;12.840;2023-02-25T02:30:02;45.03;;;24.60;;
19049;SDS011;9657;45.940;12.840;2023-02-25T02:33:01;49.67;;;26.03;;
19049;SDS011;9657;45.940;12.840;2023-02-25T02:35:34;45.30;;;24.27;;
19049;SDS011;9657;45.940;12.840;2023-02-25T02:38:10;45.90;;;24.47;;
19049;SDS011;9657;45.940;12.840;2023-02-25T02:40:46;48.37;;;24.30;;
19049;SDS011;9657;45.940;12.840;2023-02-25T02:43:22;45.93;;;23.70;;
19049;SDS011;9657;45.940;12.840;2023-02-25T02:46:00;47.83;;;24.50;;
19049;SDS011;9657;45.940;12.840;2023-02-25T02:48:33;47.07;;;24.00;;
19049;SDS011;9657;45.940;12.840;2023-02-25T02:51:07;47.63;;;24.37;;
19049;SDS011;9657;45.940;12.840;2023-02-25T02:53:39;41.93;;;23.00;;
19049;SDS011;9657;45.940;12.840;2023-02-25T02:56:11;44.33;;;24.87;;
19049;SDS011;9657;45.940;12.840;2023-02-25T02:58:42;45.70;;;23.77;;
19049;SDS011;9657;45.940;12.840;2023-02-25T03:01:13;45.03;;;23.83;;
19049;SDS011;9657;45.940;12.840;2023-02-25T03:03:44;44.37;;;23.03;;
19049;SDS011;9657;45.940;12.840;2023-02-25T03:06:16;47.90;;;26.33;;
19049;SDS011;9657;45.940;12.840;2023-02-25T03:08:47;46.87;;;23.73;;
19049;SDS011;9657;45.940;12.840;2023-02-25T03:11:20;43.57;;;24.33;;
19049;SDS011;9657;45.940;12.840;2023-02-25T03:13:47;47.07;;;24.83;;
19049;SDS011;9657;45.940;12.840;2023-02-25T03:16:17;47.47;;;24.47;;
19049;SDS011;9657;45.940;12.840;2023-02-25T03:18:51;46.30;;;24.00;;
19049;SDS011;9657;45.940;12.840;2023-02-25T03:21:24;46.63;;;25.33;;
19049;SDS011;9657;45.940;12.840;2023-02-25T03:23:55;45.20;;;23.23;;
19049;SDS011;9657;45.940;12.840;2023-02-25T03:26:25;49.93;;;25.50;;
19049;SDS011;9657;45.940;12.840;2023-02-25T03:28:54;46.70;;;24.57;;
19049;SDS011;9657;45.940;12.840;2023-02-25T03:31:23;44.87;;;23.27;;
19049;SDS011;9657;45.940;12.840;2023-02-25T03:33:55;43.23;;;24.07;;
19049;SDS011;9657;45.940;12.840;2023-02-25T03:36:26;44.83;;;24.13;;
19049;SDS011;9657;45.940;12.840;2023-02-25T03:38:58;42.43;;;22.93;;
19049;SDS011;9657;45.940;12.840;2023-02-25T03:41:29;43.10;;;24.13;;
19049;SDS011;9657;45.940;12.840;2023-02-25T03:44:00;40.27;;;22.67;;
19049;SDS011;9657;45.940;12.840;2023-02-25T03:46:30;43.07;;;23.43;;
19049;SDS011;9657;45.940;12.840;2023-02-25T03:49:01;44.47;;;22.97;;
19049;SDS011;9657;45.940;12.840;2023-02-25T03:51:30;42.33;;;23.23;;
19049;SDS011;9657;45.940;12.840;2023-02-25T03:54:01;43.17;;;22.60;;
19049;SDS011;9657;45.940;12.840;2023-02-25T03:56:29;43.67;;;23.40;;
19049;SDS011;9657;45.940;12.840;2023-02-25T03:59:04;45.57;;;22.70;;
19049;SDS011;9657;45.940;12.840;2023-02-25T04:01:31;46.60;;;24.47;;
19049;SDS011;9657;45.940;12.840;2023-02-25T04:03:59;44.67;;;24.73;;
19049;SDS011;9657;45.940;12.840;2023-02-25T04:06:28;46.47;;;24.00;;
19049;SDS011;9657;45.940;12.840;2023-02-25T04:08:56;45.83;;;23.60;;
19049;SDS011;9657;45.940;12.840;2023-02-25T04:11:23;44.07;;;23.93;;
19049;SDS011;9657;45.940;12.840;2023-02-25T04:13:50;40.73;;;22.90;;
19049;SDS011;9657;45.940;12.840;2023-02-25T04:16:17;47.37;;;23.80;;
19049;SDS011;9657;45.940;12.840;2023-02-25T04:18:44;46.90;;;23.70;;
19049;SDS011;9657;45.940;12.840;2023-02-25T04:21:22;45.23;;;23.97;;
19049;SDS011;9657;45.940;12.840;2023-02-25T04:23:52;45.13;;;24.37;;
19049;SDS011;9657;45.940;12.840;2023-02-25T04:26:19;39.97;;;22.40;;
19049;SDS011;9657;45.940;12.840;2023-02-25T04:28:47;48.30;;;23.07;;
19049;SDS011;9657;45.940;12.840;2023-02-25T04:31:14;43.10;;;22.97;;
19049;SDS011;9657;45.940;12.840;2023-02-25T04:33:41;43.37;;;23.13;;
19049;SDS011;9657;45.940;12.840;2023-02-25T04:36:21;45.83;;;23.10;;
19049;SDS011;9657;45.940;12.840;2023-02-25T04:38:53;39.20;;;21.97;;
19049;SDS011;9657;45.940;12.840;2023-02-25T04:41:20;38.47;;;21.53;;
19049;SDS011;9657;45.940;12.840;2023-02-25T04:43:48;44.43;;;23.23;;
19049;SDS011;9657;45.940;12.840;2023-02-25T04:46:15;41.80;;;22.90;;
19049;SDS011;9657;45.940;12.840;2023-02-25T04:48:42;45.23;;;23.50;;
19049;SDS011;9657;45.940;12.840;2023-02-25T04:51:09;44.87;;;22.93;;
19049;SDS011;9657;45.940;12.840;2023-02-25T04:53:37;39.57;;;22.17;;
19049;SDS011;9657;45.940;12.840;2023-02-25T04:56:05;42.83;;;22.43;;
19049;SDS011;9657;45.940;12.840;2023-02-25T04:58:34;42.47;;;22.37;;
19049;SDS011;9657;45.940;12.840;2023-02-25T05:01:03;39.30;;;21.73;;
19049;SDS011;9657;45.940;12.840;2023-02-25T05:03:32;43.87;;;22.73;;
19049;SDS011;9657;45.940;12.840;2023-02-25T05:06:00;45.90;;;24.07;;
19049;SDS011;9657;45.940;12.840;2023-02-25T05:08:28;40.00;;;21.87;;
19049;SDS011;9657;45.940;12.840;2023-02-25T05:10:57;43.07;;;23.00;;
19049;SDS011;9657;45.940;12.840;2023-02-25T05:13:24;42.87;;;23.17;;
19049;SDS011;9657;45.940;12.840;2023-02-25T05:16:01;41.50;;;21.53;;
19049;SDS011;9657;45.940;12.840;2023-02-25T05:18:30;37.40;;;20.50;;
19049;SDS011;9657;45.940;12.840;2023-02-25T05:20:57;36.77;;;20.27;;
19049;SDS011;9657;45.940;12.840;2023-02-25T05:23:25;34.57;;;20.27;;
19049;SDS011;9657;45.940;12.840;2023-02-25T05:25:52;42.63;;;21.47;;
19049;SDS011;9657;45.940;12.840;2023-02-25T05:28:20;44.73;;;23.13;;
19049;SDS011;9657;45.940;12.840;2023-02-25T05:30:47;38.63;;;22.27;;
19049;SDS011;9657;45.940;12.840;2023-02-25T05:33:16;43.03;;;21.77;;
19049;SDS011;9657;45.940;12.840;2023-02-25T05:35:43;42.47;;;22.43;;
19049;SDS011;9657;45.940;12.840;2023-02-25T05:38:10;42.50;;;22.00;;
19049;SDS011;9657;45.940;12.840;2023-02-25T05:40:37;41.17;;;21.07;;
19049;SDS011;9657;45.940;12.840;2023-02-25T05:43:04;40.23;;;21.90;;
19049;SDS011;9657;45.940;12.840;2023-02-25T05:45:34;41.20;;;20.83;;
19049;SDS011;9657;45.940;12.840;2023-02-25T05:48:01;42.67;;;22.23;;
19049;SDS011;9657;45.940;12.840;2023-02-25T05:50:28;43.53;;;22.50;;
19049;SDS011;9657;45.940;12.840;2023-02-25T05:52:58;42.13;;;22.40;;
19049;SDS011;9657;45.940;12.840;2023-02-25T05:55:25;40.27;;;21.67;;
19049;SDS011;9657;45.940;12.840;2023-02-25T05:57:52;44.13;;;21.87;;
19049;SDS011;9657;45.940;12.840;2023-02-25T06:00:20;39.60;;;21.47;;
19049;SDS011;9657;45.940;12.840;2023-02-25T06:02:49;40.93;;;21.23;;
19049;SDS011;9657;45.940;12.840;2023-02-25T06:05:16;40.37;;;21.10;;
19049;SDS011;9657;45.940;12.840;2023-02-25T06:07:43;40.17;;;21.40;;
19049;SDS011;9657;45.940;12.840;2023-02-25T06:10:10;41.10;;;22.27;;
19049;SDS011;9657;45.940;12.840;2023-02-25T06:12:37;38.80;;;21.47;;
19049;SDS011;9657;45.940;12.840;2023-02-25T06:15:05;39.93;;;21.47;;
19049;SDS011;9657;45.940;12.840;2023-02-25T06:17:32;39.40;;;20.57;;
19049;SDS011;9657;45.940;12.840;2023-02-25T06:20:01;39.47;;;20.17;;
19049;SDS011;9657;45.940;12.840;2023-02-25T06:22:29;40.30;;;21.57;;
19049;SDS011;9657;45.940;12.840;2023-02-25T06:24:56;35.63;;;19.87;;
19049;SDS011;9657;45.940;12.840;2023-02-25T06:27:23;38.03;;;20.30;;
19049;SDS011;9657;45.940;12.840;2023-02-25T06:29:50;39.63;;;21.27;;
19049;SDS011;9657;45.940;12.840;2023-02-25T06:32:17;43.13;;;22.27;;
19049;SDS011;9657;45.940;12.840;2023-02-25T06:34:45;39.80;;;21.63;;
19049;SDS011;9657;45.940;12.840;2023-02-25T06:37:13;41.60;;;22.13;;
19049;SDS011;9657;45.940;12.840;2023-02-25T06:39:40;37.67;;;20.10;;
19049;SDS011;9657;45.940;12.840;2023-02-25T06:42:07;41.03;;;20.77;;
19049;SDS011;9657;45.940;12.840;2023-02-25T06:44:34;37.80;;;20.47;;
19049;SDS011;9657;45.940;12.840;2023-02-25T06:47:02;39.40;;;20.87;;
19049;SDS011;9657;45.940;12.840;2023-02-25T06:49:29;39.43;;;19.83;;
19049;SDS011;9657;45.940;12.840;2023-02-25T06:51:56;36.73;;;20.10;;
19049;SDS011;9657;45.940;12.840;2023-02-25T06:54:24;36.63;;;20.03;;
19049;SDS011;9657;45.940;12.840;2023-02-25T06:56:52;37.73;;;20.23;;
19049;SDS011;9657;45.940;12.840;2023-02-25T06:59:20;41.97;;;21.73;;
19049;SDS011;9657;45.940;12.840;2023-02-25T07:01:47;40.50;;;21.37;;
19049;SDS011;9657;45.940;12.840;2023-02-25T07:04:14;37.00;;;19.03;;
19049;SDS011;9657;45.940;12.840;2023-02-25T07:06:42;37.73;;;21.10;;
19049;SDS011;9657;45.940;12.840;2023-02-25T07:09:10;43.87;;;21.50;;
19049;SDS011;9657;45.940;12.840;2023-02-25T07:11:38;38.23;;;21.07;;
19049;SDS011;9657;45.940;12.840;2023-02-25T07:14:05;42.07;;;21.07;;
19049;SDS011;9657;45.940;12.840;2023-02-25T07:16:32;40.17;;;21.23;;
19049;SDS011;9657;45.940;12.840;2023-02-25T07:18:59;36.83;;;20.30;;
19049;SDS011;9657;45.940;12.840;2023-02-25T07:21:27;40.70;;;20.70;;
19049;SDS011;9657;45.940;12.840;2023-02-25T07:23:55;41.03;;;20.50;;
19049;SDS011;9657;45.940;12.840;2023-02-25T07:26:22;40.40;;;20.77;;
19049;SDS011;9657;45.940;12.840;2023-02-25T07:28:53;38.53;;;20.27;;
19049;SDS011;9657;45.940;12.840;2023-02-25T07:31:21;34.60;;;18.97;;
19049;SDS011;9657;45.940;12.840;2023-02-25T07:33:49;36.10;;;18.90;;
19049;SDS011;9657;45.940;12.840;2023-02-25T07:36:16;40.03;;;19.93;;
19049;SDS011;9657;45.940;12.840;2023-02-25T07:38:44;39.70;;;19.80;;
19049;SDS011;9657;45.940;12.840;2023-02-25T07:41:13;37.53;;;19.10;;
19049;SDS011;9657;45.940;12.840;2023-02-25T07:43:42;37.97;;;19.63;;
19049;SDS011;9657;45.940;12.840;2023-02-25T07:46:11;33.93;;;18.80;;
19049;SDS011;9657;45.940;12.840;2023-02-25T07:48:38;34.77;;;18.03;;
19049;SDS011;9657;45.940;12.840;2023-02-25T07:51:06;36.93;;;18.67;;
19049;SDS011;9657;45.940;12.840;2023-02-25T07:53:34;37.30;;;19.53;;
19049;SDS011;9657;45.940;12.840;2023-02-25T07:56:02;38.60;;;18.63;;
19049;SDS011;9657;45.940;12.840;2023-02-25T07:58:31;37.63;;;18.43;;
19049;SDS011;9657;45.940;12.840;2023-02-25T08:00:58;35.67;;;19.43;;
19049;SDS011;9657;45.940;12.840;2023-02-25T08:03:28;36.70;;;19.60;;
19049;SDS011;9657;45.940;12.840;2023-02-25T08:05:55;34.00;;;19.07;;
19049;SDS011;9657;45.940;12.840;2023-02-25T08:08:24;36.70;;;18.87;;
19049;SDS011;9657;45.940;12.840;2023-02-25T08:10:51;36.10;;;18.33;;
19049;SDS011;9657;45.940;12.840;2023-02-25T08:13:18;43.10;;;19.47;;
19049;SDS011;9657;45.940;12.840;2023-02-25T08:15:45;41.93;;;21.70;;
19049;SDS011;9657;45.940;12.840;2023-02-25T08:18:12;35.53;;;18.87;;
19049;SDS011;9657;45.940;12.840;2023-02-25T08:20:45;43.07;;;19.17;;
19049;SDS011;9657;45.940;12.840;2023-02-25T08:23:12;36.83;;;19.23;;
19049;SDS011;9657;45.940;12.840;2023-02-25T08:25:39;38.83;;;19.43;;
19049;SDS011;9657;45.940;12.840;2023-02-25T08:28:06;41.60;;;19.27;;
19049;SDS011;9657;45.940;12.840;2023-02-25T08:30:34;35.50;;;18.07;;
19049;SDS011;9657;45.940;12.840;2023-02-25T08:33:02;36.33;;;18.80;;
19049;SDS011;9657;45.940;12.840;2023-02-25T08:35:29;39.97;;;19.70;;
19049;SDS011;9657;45.940;12.840;2023-02-25T08:37:57;42.27;;;20.50;;
19049;SDS011;9657;45.940;12.840;2023-02-25T08:40:24;42.67;;;20.17;;
19049;SDS011;9657;45.940;12.840;2023-02-25T08:42:51;39.87;;;19.87;;
19049;SDS011;9657;45.940;12.840;2023-02-25T08:45:18;39.80;;;20.50;;
19049;SDS011;9657;45.940;12.840;2023-02-25T08:47:46;38.83;;;19.33;;
19049;SDS011;9657;45.940;12.840;2023-02-25T08:50:13;37.73;;;19.33;;
19049;SDS011;9657;45.940;12.840;2023-02-25T08:52:41;35.17;;;19.77;;
19049;SDS011;9657;45.940;12.840;2023-02-25T08:55:10;37.00;;;17.97;;
19049;SDS011;9657;45.940;12.840;2023-02-25T08:57:39;40.90;;;19.90;;
19049;SDS011;9657;45.940;12.840;2023-02-25T09:00:06;34.83;;;18.23;;
19049;SDS011;9657;45.940;12.840;2023-02-25T09:02:35;36.67;;;19.67;;
19049;SDS011;9657;45.940;12.840;2023-02-25T09:05:03;43.80;;;20.90;;
19049;SDS011;9657;45.940;12.840;2023-02-25T09:07:30;39.73;;;20.23;;
19049;SDS011;9657;45.940;12.840;2023-02-25T09:09:57;37.63;;;18.53;;
19049;SDS011;9657;45.940;12.840;2023-02-25T09:12:26;38.50;;;19.43;;
19049;SDS011;9657;45.940;12.840;2023-02-25T09:14:55;34.27;;;18.40;;
19049;SDS011;9657;45.940;12.840;2023-02-25T09:17:22;43.73;;;20.40;;
19049;SDS011;9657;45.940;12.840;2023-02-25T09:19:49;35.17;;;18.47;;
19049;SDS011;9657;45.940;12.840;2023-02-25T09:22:16;43.90;;;20.13;;
19049;SDS011;9657;45.940;12.840;2023-02-25T09:24:44;34.73;;;18.17;;
19049;SDS011;9657;45.940;12.840;2023-02-25T09:27:11;38.87;;;18.80;;
19049;SDS011;9657;45.940;12.840;2023-02-25T09:29:39;36.60;;;19.57;;
19049;SDS011;9657;45.940;12.840;2023-02-25T09:32:07;42.27;;;20.27;;
19049;SDS011;9657;45.940;12.840;2023-02-25T09:34:36;35.43;;;18.47;;
19049;SDS011;9657;45.940;12.840;2023-02-25T09:37:03;40.97;;;18.70;;
19049;SDS011;9657;45.940;12.840;2023-02-25T09:39:30;40.87;;;20.10;;
19049;SDS011;9657;45.940;12.840;2023-02-25T09:41:59;32.87;;;18.97;;
19049;SDS011;9657;45.940;12.840;2023-02-25T09:44:35;40.00;;;20.63;;
19049;SDS011;9657;45.940;12.840;2023-02-25T09:47:09;36.10;;;19.53;;
19049;SDS011;9657;45.940;12.840;2023-02-25T09:49:40;36.83;;;18.53;;
19049;SDS011;9657;45.940;12.840;2023-02-25T09:52:11;39.60;;;19.87;;
19049;SDS011;9657;45.940;12.840;2023-02-25T09:54:43;38.23;;;19.43;;
19049;SDS011;9657;45.940;12.840;2023-02-25T09:57:12;39.00;;;20.77;;
19049;SDS011;9657;45.940;12.840;2023-02-25T09:59:43;40.53;;;21.07;;
19049;SDS011;9657;45.940;12.840;2023-02-25T10:02:20;45.17;;;21.90;;
19049;SDS011;9657;45.940;12.840;2023-02-25T10:04:55;40.47;;;20.80;;
19049;SDS011;9657;45.940;12.840;2023-02-25T10:07:48;39.90;;;20.30;;
19049;SDS011;9657;45.940;12.840;2023-02-25T10:10:23;40.70;;;20.27;;
19049;SDS011;9657;45.940;12.840;2023-02-25T10:12:57;46.97;;;21.53;;
19049;SDS011;9657;45.940;12.840;2023-02-25T10:15:36;37.37;;;20.43;;
19049;SDS011;9657;45.940;12.840;2023-02-25T10:18:20;39.77;;;20.30;;
19049;SDS011;9657;45.940;12.840;2023-02-25T10:21:10;39.47;;;20.23;;
19049;SDS011;9657;45.940;12.840;2023-02-25T10:23:54;40.40;;;20.83;;
19049;SDS011;9657;45.940;12.840;2023-02-25T10:26:35;35.30;;;19.50;;
19049;SDS011;9657;45.940;12.840;2023-02-25T10:29:09;39.63;;;20.77;;
19049;SDS011;9657;45.940;12.840;2023-02-25T10:31:38;38.10;;;19.20;;
19049;SDS011;9657;45.940;12.840;2023-02-25T10:34:17;40.20;;;19.87;;
19049;SDS011;9657;45.940;12.840;2023-02-25T10:36:46;40.37;;;20.43;;
19049;SDS011;9657;45.940;12.840;2023-02-25T10:39:19;39.63;;;21.53;;
19049;SDS011;9657;45.940;12.840;2023-02-25T10:41:46;38.20;;;20.77;;
19049;SDS011;9657;45.940;12.840;2023-02-25T10:44:14;33.23;;;19.90;;
19049;SDS011;9657;45.940;12.840;2023-02-25T10:46:41;37.10;;;20.83;;
19049;SDS011;9657;45.940;12.840;2023-02-25T10:49:17;39.43;;;21.20;;
19049;SDS011;9657;45.940;12.840;2023-02-25T10:51:56;42.67;;;21.53;;
19049;SDS011;9657;45.940;12.840;2023-02-25T10:54:27;33.63;;;19.40;;
19049;SDS011;9657;45.940;12.840;2023-02-25T10:56:56;43.33;;;20.90;;
19049;SDS011;9657;45.940;12.840;2023-02-25T10:59:27;38.20;;;20.43;;
19049;SDS011;9657;45.940;12.840;2023-02-25T11:01:57;36.33;;;20.67;;
19049;SDS011;9657;45.940;12.840;2023-02-25T11:04:32;41.83;;;21.00;;
19049;SDS011;9657;45.940;12.840;2023-02-25T11:07:04;41.77;;;21.50;;
19049;SDS011;9657;45.940;12.840;2023-02-25T11:09:56;38.53;;;20.50;;
19049;SDS011;9657;45.940;12.840;2023-02-25T11:12:38;43.77;;;21.27;;
19049;SDS011;9657;45.940;12.840;2023-02-25T11:18:02;37.43;;;19.43;;
19049;SDS011;9657;45.940;12.840;2023-02-25T11:20:42;37.23;;;19.63;;
19049;SDS011;9657;45.940;12.840;2023-02-25T11:23:18;36.50;;;19.70;;
19049;SDS011;9657;45.940;12.840;2023-02-25T11:25:47;39.33;;;19.00;;
19049;SDS011;9657;45.940;12.840;2023-02-25T11:28:19;42.00;;;20.60;;
19049;SDS011;9657;45.940;12.840;2023-02-25T11:30:54;34.63;;;20.17;;
19049;SDS011;9657;45.940;12.840;2023-02-25T11:33:31;33.90;;;18.90;;
19049;SDS011;9657;45.940;12.840;2023-02-25T11:36:02;36.87;;;19.90;;
19049;SDS011;9657;45.940;12.840;2023-02-25T11:38:31;39.57;;;21.03;;
19049;SDS011;9657;45.940;12.840;2023-02-25T11:41:00;39.70;;;20.87;;
19049;SDS011;9657;45.940;12.840;2023-02-25T11:43:33;33.70;;;19.63;;
19049;SDS011;9657;45.940;12.840;2023-02-25T11:46:04;33.97;;;19.83;;
19049;SDS011;9657;45.940;12.840;2023-02-25T11:48:38;42.57;;;22.13;;
19049;SDS011;9657;45.940;12.840;2023-02-25T11:51:15;43.40;;;20.77;;
19049;SDS011;9657;45.940;12.840;2023-02-25T11:56:44;41.30;;;20.27;;
19049;SDS011;9657;45.940;12.840;2023-02-25T11:59:20;39.77;;;21.77;;
19049;SDS011;9657;45.940;12.840;2023-02-25T12:05:06;36.47;;;19.63;;
19049;SDS011;9657;45.940;12.840;2023-02-25T12:07:54;35.90;;;20.40;;
19049;SDS011;9657;45.940;12.840;2023-02-25T12:13:48;42.33;;;20.13;;
19049;SDS011;9657;45.940;12.840;2023-02-25T12:19:54;36.33;;;20.07;;
19049;SDS011;9657;45.940;12.840;2023-02-25T12:23:13;38.27;;;19.27;;
19049;SDS011;9657;45.940;12.840;2023-02-25T12:26:04;37.73;;;20.47;;
19049;SDS011;9657;45.940;12.840;2023-02-25T12:28:48;38.77;;;20.43;;
19049;SDS011;9657;45.940;12.840;2023-02-25T12:31:42;35.77;;;19.47;;
19049;SDS011;9657;45.940;12.840;2023-02-25T12:34:30;36.80;;;20.70;;
19049;SDS011;9657;45.940;12.840;2023-02-25T12:37:15;38.30;;;19.90;;
19049;SDS011;9657;45.940;12.840;2023-02-25T12:40:01;37.83;;;20.53;;
19049;SDS011;9657;45.940;12.840;2023-02-25T12:42:36;39.03;;;23.23;;
19049;SDS011;9657;45.940;12.840;2023-02-25T12:45:21;41.73;;;22.40;;
19049;SDS011;9657;45.940;12.840;2023-02-25T12:48:28;41.50;;;20.47;;
19049;SDS011;9657;45.940;12.840;2023-02-25T12:51:26;35.13;;;19.67;;
19049;SDS011;9657;45.940;12.840;2023-02-25T12:54:20;39.83;;;19.47;;
19049;SDS011;9657;45.940;12.840;2023-02-25T12:57:12;40.53;;;20.40;;
19049;SDS011;9657;45.940;12.840;2023-02-25T12:59:57;40.17;;;19.50;;
19049;SDS011;9657;45.940;12.840;2023-02-25T13:02:42;38.60;;;20.07;;
19049;SDS011;9657;45.940;12.840;2023-02-25T13:05:24;33.43;;;19.57;;
19049;SDS011;9657;45.940;12.840;2023-02-25T13:08:11;37.67;;;19.90;;
19049;SDS011;9657;45.940;12.840;2023-02-25T13:11:13;36.33;;;20.53;;
19049;SDS011;9657;45.940;12.840;2023-02-25T13:16:49;37.27;;;20.00;;
19049;SDS011;9657;45.940;12.840;2023-02-25T13:19:38;35.43;;;18.73;;
19049;SDS011;9657;45.940;12.840;2023-02-25T13:22:21;33.70;;;18.47;;
19049;SDS011;9657;45.940;12.840;2023-02-25T13:25:10;35.07;;;19.50;;
19049;SDS011;9657;45.940;12.840;2023-02-25T13:30:36;37.30;;;21.13;;
19049;SDS011;9657;45.940;12.840;2023-02-25T13:33:15;39.37;;;22.07;;
19049;SDS011;9657;45.940;12.840;2023-02-25T13:35:51;33.30;;;20.17;;
19049;SDS011;9657;45.940;12.840;2023-02-25T13:38:27;40.57;;;21.27;;
19049;SDS011;9657;45.940;12.840;2023-02-25T13:41:12;42.23;;;21.23;;
19049;SDS011;9657;45.940;12.840;2023-02-25T13:44:08;35.17;;;20.57;;
19049;SDS011;9657;45.940;12.840;2023-02-25T13:46:51;45.77;;;22.63;;
19049;SDS011;9657;45.940;12.840;2023-02-25T13:49:31;40.23;;;21.33;;
19049;SDS011;9657;45.940;12.840;2023-02-25T13:55:07;37.10;;;20.53;;
19049;SDS011;9657;45.940;12.840;2023-02-25T13:58:13;38.17;;;20.43;;
19049;SDS011;9657;45.940;12.840;2023-02-25T14:04:06;43.03;;;18.83;;
19049;SDS011;9657;45.940;12.840;2023-02-25T14:07:09;38.27;;;20.03;;
19049;SDS011;9657;45.940;12.840;2023-02-25T14:09:48;40.53;;;20.80;;
19049;SDS011;9657;45.940;12.840;2023-02-25T14:12:28;36.17;;;19.33;;
19049;SDS011;9657;45.940;12.840;2023-02-25T14:15:20;37.27;;;20.23;;
19049;SDS011;9657;45.940;12.840;2023-02-25T14:21:01;33.87;;;19.97;;
19049;SDS011;9657;45.940;12.840;2023-02-25T14:23:42;38.37;;;19.83;;
19049;SDS011;9657;45.940;12.840;2023-02-25T14:26:17;34.87;;;19.10;;
19049;SDS011;9657;45.940;12.840;2023-02-25T14:28:59;38.30;;;20.63;;
19049;SDS011;9657;45.940;12.840;2023-02-25T14:31:36;42.10;;;19.43;;
19049;SDS011;9657;45.940;12.840;2023-02-25T14:34:17;36.13;;;19.07;;
19049;SDS011;9657;45.940;12.840;2023-02-25T14:37:07;32.93;;;19.87;;
19049;SDS011;9657;45.940;12.840;2023-02-25T14:39:45;36.53;;;20.43;;
19049;SDS011;9657;45.940;12.840;2023-02-25T14:42:27;42.70;;;21.57;;
19049;SDS011;9657;45.940;12.840;2023-02-25T14:45:13;39.10;;;22.13;;
19049;SDS011;9657;45.940;12.840;2023-02-25T14:47:45;40.80;;;23.37;;
19049;SDS011;9657;45.940;12.840;2023-02-25T14:50:19;39.53;;;23.43;;
19049;SDS011;9657;45.940;12.840;2023-02-25T14:58:52;41.10;;;23.23;;
19049;SDS011;9657;45.940;12.840;2023-02-25T15:01:36;42.30;;;24.03;;
19049;SDS011;9657;45.940;12.840;2023-02-25T15:04:24;43.27;;;24.30;;
19049;SDS011;9657;45.940;12.840;2023-02-25T15:07:16;43.63;;;23.40;;
19049;SDS011;9657;45.940;12.840;2023-02-25T15:13:22;45.97;;;24.20;;
19049;SDS011;9657;45.940;12.840;2023-02-25T15:16:18;43.60;;;24.60;;
19049;SDS011;9657;45.940;12.840;2023-02-25T15:24:47;48.63;;;26.20;;
19049;SDS011;9657;45.940;12.840;2023-02-25T15:30:16;46.80;;;25.17;;
19049;SDS011;9657;45.940;12.840;2023-02-25T15:32:45;47.47;;;27.43;;
19049;SDS011;9657;45.940;12.840;2023-02-25T15:38:37;45.03;;;25.87;;
19049;SDS011;9657;45.940;12.840;2023-02-25T15:47:11;44.80;;;26.07;;
19049;SDS011;9657;45.940;12.840;2023-02-25T15:49:52;45.57;;;24.97;;
19049;SDS011;9657;45.940;12.840;2023-02-25T15:55:31;42.93;;;23.33;;
19049;SDS011;9657;45.940;12.840;2023-02-25T16:01:27;39.47;;;23.10;;
19049;SDS011;9657;45.940;12.840;2023-02-25T16:04:05;44.10;;;24.07;;